createdAt,value
2017-10-18T00:01:13.646Z,66.60
2017-10-18T00:03:40.739Z,67.50
2017-10-18T00:06:06.954Z,67.50
2017-10-18T00:08:33.867Z,67.10
2017-10-18T00:11:00.185Z,67.20
2017-10-18T00:13:26.603Z,67.10
2017-10-18T00:15:53.733Z,67.80
2017-10-18T00:18:19.865Z,68.10
2017-10-18T00:20:46.195Z,67.30
2017-10-18T00:23:12.502Z,68.20
2017-10-18T00:25:38.837Z,66.40
2017-10-18T00:28:05.198Z,67.70
2017-10-18T00:30:31.716Z,68.10
2017-10-18T00:32:58.074Z,66.90
2017-10-18T00:35:25.184Z,68.70
2017-10-18T00:37:51.564Z,68.80
2017-10-18T00:40:17.942Z,68.00
2017-10-18T00:42:44.576Z,68.10
2017-10-18T00:45:10.918Z,68.00
2017-10-18T00:47:38.021Z,67.60
2017-10-18T00:50:04.348Z,67.70
2017-10-18T00:52:30.676Z,67.00
2017-10-18T00:54:57.012Z,67.60
2017-10-18T00:57:24.086Z,67.20
2017-10-18T00:59:55.224Z,67.20
2017-10-18T01:02:21.354Z,67.60
2017-10-18T01:04:47.485Z,67.20
2017-10-18T01:07:13.625Z,67.50
2017-10-18T01:09:39.741Z,67.00
2017-10-18T01:12:05.875Z,68.90
2017-10-18T01:14:32.033Z,68.70
2017-10-18T01:16:58.165Z,68.20
2017-10-18T01:19:24.298Z,68.20
2017-10-18T01:21:50.427Z,67.80
2017-10-18T01:24:17.312Z,68.10
2017-10-18T01:26:43.492Z,68.10
2017-10-18T01:29:10.378Z,68.30
2017-10-18T01:31:36.500Z,68.20
2017-10-18T01:34:03.349Z,68.70
2017-10-18T01:36:30.210Z,68.10
2017-10-18T01:38:57.101Z,69.10
2017-10-18T01:41:23.221Z,69.00
2017-10-18T01:43:49.387Z,68.90
2017-10-18T01:46:15.549Z,68.30
2017-10-18T01:48:41.681Z,68.20
2017-10-18T01:51:07.825Z,67.70
2017-10-18T01:53:33.970Z,67.50
2017-10-18T01:56:00.101Z,67.40
2017-10-18T01:58:26.429Z,67.80
2017-10-18T02:00:52.759Z,68.70
2017-10-18T02:03:19.828Z,67.80
2017-10-18T02:05:46.202Z,67.80
2017-10-18T02:08:12.429Z,68.30
2017-10-18T02:10:38.852Z,67.70
2017-10-18T02:13:05.972Z,67.20
2017-10-18T02:15:33.041Z,68.00
2017-10-18T02:17:59.244Z,68.00
2017-10-18T02:20:26.315Z,67.70
2017-10-18T02:22:52.465Z,67.70
2017-10-18T02:25:18.592Z,68.20
2017-10-18T02:27:44.918Z,68.70
2017-10-18T02:30:12.708Z,67.60
2017-10-18T02:32:39.569Z,67.70
2017-10-18T02:35:06.437Z,68.40
2017-10-18T02:37:32.653Z,68.30
2017-10-18T02:39:59.511Z,68.10
2017-10-18T02:42:26.389Z,68.40
2017-10-18T02:44:52.541Z,68.40
2017-10-18T02:47:18.669Z,68.20
2017-10-18T02:49:44.939Z,69.00
2017-10-18T02:52:11.065Z,69.10
2017-10-18T02:54:37.224Z,68.90
2017-10-18T02:57:03.389Z,68.30
2017-10-18T02:59:29.558Z,68.90
2017-10-18T03:01:56.621Z,68.70
2017-10-18T03:04:23.491Z,68.90
2017-10-18T03:06:50.105Z,68.90
2017-10-18T03:09:16.980Z,69.30
2017-10-18T03:11:43.092Z,69.20
2017-10-18T03:14:09.218Z,68.70
2017-10-18T03:16:35.331Z,68.50
2017-10-18T03:19:01.468Z,68.00
2017-10-18T03:21:27.669Z,67.80
2017-10-18T03:23:53.852Z,68.90
2017-10-18T03:26:20.212Z,68.30
2017-10-18T03:28:46.557Z,68.00
2017-10-18T03:31:12.918Z,69.10
2017-10-18T03:33:39.286Z,68.10
2017-10-18T03:36:05.900Z,68.30
2017-10-18T03:38:32.280Z,68.60
2017-10-18T03:40:58.681Z,68.60
2017-10-18T03:43:25.025Z,68.90
2017-10-18T03:45:51.359Z,68.80
2017-10-18T03:48:18.630Z,68.20
2017-10-18T03:50:44.985Z,68.20
2017-10-18T03:53:11.293Z,68.60
2017-10-18T03:55:38.373Z,68.50
2017-10-18T03:58:04.699Z,68.40
2017-10-18T04:00:31.862Z,67.90
2017-10-18T04:02:58.943Z,67.90
2017-10-18T04:05:25.078Z,68.40
2017-10-18T04:07:51.943Z,67.70
2017-10-18T04:10:18.057Z,68.40
2017-10-18T04:12:44.417Z,67.40
2017-10-18T04:15:11.535Z,67.00
2017-10-18T04:17:37.856Z,66.70
2017-10-18T04:20:07.613Z,67.00
2017-10-18T04:22:33.733Z,68.20
2017-10-18T04:24:59.881Z,68.10
2017-10-18T04:27:25.996Z,66.80
2017-10-18T04:29:52.856Z,68.00
2017-10-18T04:32:22.242Z,67.90
2017-10-18T04:34:49.333Z,68.60
2017-10-18T04:37:15.618Z,68.60
2017-10-18T04:39:41.781Z,67.90
2017-10-18T04:42:07.937Z,67.60
2017-10-18T04:44:34.841Z,67.00
2017-10-18T04:47:01.073Z,67.00
2017-10-18T04:49:27.283Z,66.90
2017-10-18T04:51:53.426Z,67.60
2017-10-18T04:54:19.560Z,69.70
2017-10-18T04:56:46.417Z,68.30
2017-10-18T04:59:13.292Z,67.80
2017-10-18T05:01:39.420Z,67.80
2017-10-18T05:04:06.309Z,67.30
2017-10-18T05:06:33.098Z,67.30
2017-10-18T05:08:59.287Z,68.90
2017-10-18T05:11:26.177Z,67.90
2017-10-18T05:13:52.326Z,67.90
2017-10-18T05:16:18.473Z,69.10
2017-10-18T05:18:44.713Z,67.30
2017-10-18T05:21:10.890Z,68.00
2017-10-18T05:23:37.034Z,67.90
2017-10-18T05:26:03.207Z,67.70
2017-10-18T05:28:30.163Z,67.70
2017-10-18T05:30:56.345Z,67.00
2017-10-18T05:33:22.472Z,67.40
2017-10-18T05:35:48.614Z,68.60
2017-10-18T05:38:14.750Z,68.30
2017-10-18T05:40:41.621Z,68.70
2017-10-18T05:43:07.818Z,69.30
2017-10-18T05:45:34.126Z,68.60
2017-10-18T05:48:00.254Z,69.20
2017-10-18T05:50:26.386Z,69.10
2017-10-18T05:52:52.523Z,69.40
2017-10-18T05:55:18.649Z,69.40
2017-10-18T05:57:44.774Z,69.30
2017-10-18T06:00:11.669Z,70.70
2017-10-18T06:02:37.793Z,70.60
2017-10-18T06:05:04.096Z,70.10
2017-10-18T06:07:31.009Z,70.00
2017-10-18T06:09:57.117Z,70.00
2017-10-18T06:12:23.976Z,69.90
2017-10-18T06:14:50.920Z,70.30
2017-10-18T06:17:17.027Z,69.80
2017-10-18T06:19:43.221Z,69.40
2017-10-18T06:22:10.102Z,70.30
2017-10-18T06:24:36.246Z,69.90
2017-10-18T06:27:02.510Z,70.60
2017-10-18T06:29:28.636Z,71.00
2017-10-18T06:31:54.764Z,71.30
2017-10-18T06:34:20.881Z,71.60
2017-10-18T06:36:47.833Z,70.80
2017-10-18T06:39:13.996Z,70.70
2017-10-18T06:41:41.048Z,71.10
2017-10-18T06:44:07.948Z,71.30
2017-10-18T06:46:34.072Z,71.20
2017-10-18T06:49:00.198Z,71.50
2017-10-18T06:51:27.109Z,70.60
2017-10-18T06:53:53.269Z,70.60
2017-10-18T06:56:19.477Z,70.60
2017-10-18T06:58:45.833Z,70.40
2017-10-18T07:01:12.277Z,70.60
2017-10-18T07:03:38.636Z,70.90
2017-10-18T07:06:05.073Z,71.20
2017-10-18T07:08:31.456Z,71.50
2017-10-18T07:10:58.544Z,71.30
2017-10-18T07:13:25.001Z,71.30
2017-10-18T07:15:51.361Z,71.50
2017-10-18T07:18:17.731Z,71.60
2017-10-18T07:20:44.049Z,71.50
2017-10-18T07:23:11.410Z,71.50
2017-10-18T07:25:37.730Z,71.50
2017-10-18T07:28:04.060Z,71.70
2017-10-18T07:30:30.426Z,71.10
2017-10-18T07:32:57.166Z,71.20
2017-10-18T07:35:24.053Z,71.00
2017-10-18T07:37:50.385Z,70.50
2017-10-18T07:40:16.731Z,70.80
2017-10-18T07:42:43.114Z,70.20
2017-10-18T07:45:10.209Z,70.70
2017-10-18T07:47:36.627Z,70.70
2017-10-18T07:50:02.996Z,70.30
2017-10-18T07:52:29.266Z,69.50
2017-10-18T07:54:55.625Z,69.50
2017-10-18T07:57:21.993Z,70.50
2017-10-18T07:59:48.324Z,70.70
2017-10-18T08:02:14.661Z,70.90
2017-10-18T08:04:41.005Z,70.90
2017-10-18T08:07:07.585Z,71.30
2017-10-18T08:09:33.928Z,70.30
2017-10-18T08:12:00.307Z,70.90
2017-10-18T08:14:26.646Z,70.30
2017-10-18T08:16:52.985Z,70.70
2017-10-18T08:19:20.109Z,71.00
2017-10-18T08:21:46.449Z,71.00
2017-10-18T08:24:12.970Z,71.10
2017-10-18T08:26:39.344Z,71.00
2017-10-18T08:29:07.057Z,70.80
2017-10-18T08:31:33.451Z,71.10
2017-10-18T08:33:59.843Z,71.30
2017-10-18T08:36:26.199Z,71.20
2017-10-18T08:38:52.658Z,72.00
2017-10-18T08:41:18.976Z,71.90
2017-10-18T08:43:45.272Z,71.70
2017-10-18T08:46:14.877Z,71.50
2017-10-18T08:48:41.768Z,71.90
2017-10-18T08:51:07.997Z,71.90
2017-10-18T08:53:34.137Z,71.70
2017-10-18T08:56:00.285Z,70.40
2017-10-18T08:58:26.418Z,70.90
2017-10-18T09:03:23.590Z,70.50
2017-10-18T09:05:49.708Z,70.20
2017-10-18T09:08:16.605Z,70.00
2017-10-18T09:10:42.725Z,69.40
2017-10-18T09:13:09.605Z,69.50
2017-10-18T09:18:07.802Z,69.50
2017-10-18T09:20:33.921Z,69.50
2017-10-18T09:23:00.037Z,69.20
2017-10-18T09:25:26.149Z,68.70
2017-10-18T09:27:52.254Z,69.30
2017-10-18T09:30:18.376Z,69.20
2017-10-18T09:32:51.512Z,68.80
2017-10-18T09:35:17.656Z,69.00
2017-10-18T09:37:43.908Z,69.30
2017-10-18T09:40:10.028Z,68.70
2017-10-18T09:42:36.900Z,68.40
2017-10-18T09:45:03.036Z,68.30
2017-10-18T09:47:33.720Z,68.40
2017-10-18T09:50:00.094Z,68.00
2017-10-18T09:52:26.957Z,68.50
2017-10-18T09:54:53.076Z,68.50
2017-10-18T09:57:19.200Z,67.60
2017-10-18T09:59:46.066Z,66.30
2017-10-18T10:02:19.853Z,66.50
2017-10-18T10:04:45.989Z,66.40
2017-10-18T10:07:12.150Z,66.20
2017-10-18T10:09:38.265Z,66.30
2017-10-18T10:12:04.384Z,66.20
2017-10-18T10:14:30.489Z,65.00
2017-10-18T10:16:56.597Z,66.20
2017-10-18T10:19:23.538Z,64.30
2017-10-18T10:21:54.684Z,64.20
2017-10-18T10:24:20.868Z,64.80
2017-10-18T10:26:47.764Z,64.00
2017-10-18T10:29:13.896Z,64.00
2017-10-18T10:31:40.030Z,63.50
2017-10-18T10:34:06.240Z,63.60
2017-10-18T10:36:32.375Z,61.90
2017-10-18T10:38:59.245Z,62.10
2017-10-18T10:41:29.073Z,62.30
2017-10-18T10:43:55.193Z,61.50
2017-10-18T10:46:21.326Z,60.40
2017-10-18T10:48:47.468Z,60.30
2017-10-18T10:51:14.359Z,58.40
2017-10-18T10:53:40.472Z,58.50
2017-10-18T10:56:06.732Z,59.10
2017-10-18T10:58:32.865Z,57.80
2017-10-18T11:01:04.532Z,57.00
2017-10-18T11:03:30.652Z,56.60
2017-10-18T11:05:56.819Z,56.50
2017-10-18T11:08:23.678Z,55.50
2017-10-18T11:10:49.796Z,55.40
2017-10-18T11:13:15.917Z,54.70
2017-10-18T11:15:42.025Z,55.40
2017-10-18T11:18:08.390Z,54.90
2017-10-18T11:20:41.181Z,52.90
2017-10-18T11:23:07.335Z,54.80
2017-10-18T11:25:33.549Z,54.50
2017-10-18T11:27:59.669Z,53.80
2017-10-18T11:30:26.554Z,52.80
2017-10-18T11:32:53.414Z,53.60
2017-10-18T11:35:23.550Z,53.50
2017-10-18T11:37:49.695Z,52.40
2017-10-18T11:40:15.821Z,52.90
2017-10-18T11:42:41.952Z,51.90
2017-10-18T11:45:08.157Z,51.40
2017-10-18T11:47:34.266Z,50.40
2017-10-18T11:50:00.389Z,52.10
2017-10-18T11:52:26.543Z,50.60
2017-10-18T11:57:25.563Z,50.90
2017-10-18T11:59:51.684Z,51.20
2017-10-18T12:02:17.780Z,50.90
2017-10-18T12:04:43.973Z,51.90
2017-10-18T12:07:10.843Z,50.30
2017-10-18T12:09:36.981Z,50.20
2017-10-18T12:12:03.089Z,51.10
2017-10-18T12:14:33.721Z,49.90
2017-10-18T12:17:00.049Z,50.00
2017-10-18T12:19:26.285Z,50.00
2017-10-18T12:21:52.388Z,49.70
2017-10-18T12:24:18.492Z,48.40
2017-10-18T12:26:44.671Z,50.80
2017-10-18T12:29:10.789Z,49.10
2017-10-18T12:31:37.658Z,49.70
2017-10-18T12:34:09.780Z,49.80
2017-10-18T12:36:35.913Z,49.40
2017-10-18T12:39:02.794Z,50.70
2017-10-18T12:41:29.661Z,49.70
2017-10-18T12:43:55.764Z,49.70
2017-10-18T12:46:21.892Z,48.90
2017-10-18T12:48:48.758Z,49.80
2017-10-18T12:51:18.692Z,49.70
2017-10-18T12:53:44.808Z,49.90
2017-10-18T12:56:14.319Z,49.30
2017-10-18T12:58:40.858Z,48.80
2017-10-18T13:01:07.191Z,50.20
2017-10-18T13:03:33.517Z,48.60
2017-10-18T13:06:00.669Z,46.70
2017-10-18T13:08:27.016Z,46.60
2017-10-18T13:10:53.333Z,47.80
2017-10-18T13:13:19.648Z,46.80
2017-10-18T13:15:45.964Z,48.20
2017-10-18T13:18:13.045Z,48.20
2017-10-18T13:20:39.349Z,48.10
2017-10-18T13:23:05.757Z,46.60
2017-10-18T13:25:32.840Z,47.70
2017-10-18T13:27:59.870Z,47.30
2017-10-18T13:30:26.213Z,47.30
2017-10-18T13:32:56.491Z,47.50
2017-10-18T13:35:22.822Z,47.40
2017-10-18T13:37:49.905Z,46.40
2017-10-18T13:40:16.209Z,46.50
2017-10-18T13:42:42.504Z,45.10
2017-10-18T13:45:09.597Z,45.30
2017-10-18T13:47:36.035Z,45.30
2017-10-18T13:50:02.361Z,44.90
2017-10-18T13:52:31.116Z,44.20
2017-10-18T13:54:57.423Z,47.00
2017-10-18T13:57:23.765Z,45.30
2017-10-18T13:59:50.113Z,45.80
2017-10-18T14:02:17.177Z,46.00
2017-10-18T14:04:43.506Z,45.80
2017-10-18T14:07:09.873Z,44.60
2017-10-18T14:09:36.256Z,45.50
2017-10-18T14:12:06.790Z,45.10
2017-10-18T14:14:33.132Z,43.60
2017-10-18T14:17:00.198Z,44.30
2017-10-18T14:19:27.258Z,46.50
2017-10-18T14:21:53.630Z,46.40
2017-10-18T14:24:20.018Z,45.70
2017-10-18T14:26:46.341Z,45.60
2017-10-18T14:29:14.068Z,47.20
2017-10-18T14:31:40.410Z,44.90
2017-10-18T14:34:07.577Z,43.80
2017-10-18T14:36:35.187Z,45.70
2017-10-18T14:39:01.513Z,45.70
2017-10-18T14:41:27.841Z,45.10
2017-10-18T14:43:54.950Z,44.20
2017-10-18T14:46:22.238Z,44.00
2017-10-18T14:48:48.602Z,45.10
2017-10-18T14:51:15.069Z,45.50
2017-10-18T14:53:45.186Z,47.30
2017-10-18T14:56:11.517Z,47.50
2017-10-18T14:58:38.083Z,45.10
2017-10-18T15:01:04.610Z,46.50
2017-10-18T15:03:31.092Z,45.60
2017-10-18T15:05:57.573Z,46.00
2017-10-18T15:08:23.927Z,47.50
2017-10-18T15:10:50.251Z,48.20
2017-10-18T15:13:16.585Z,49.20
2017-10-18T15:15:42.925Z,48.00
2017-10-18T15:18:09.277Z,48.50
2017-10-18T15:20:35.570Z,47.00
2017-10-18T15:23:02.613Z,47.20
2017-10-18T15:25:29.017Z,47.10
2017-10-18T15:27:55.348Z,48.40
2017-10-18T15:30:21.690Z,48.00
2017-10-18T15:32:48.016Z,48.60
2017-10-18T15:35:14.377Z,48.70
2017-10-18T15:37:40.724Z,48.90
2017-10-18T15:40:07.031Z,50.40
2017-10-18T15:42:33.332Z,49.90
2017-10-18T15:44:59.672Z,50.60
2017-10-18T15:47:25.979Z,51.40
2017-10-18T15:49:52.309Z,52.00
2017-10-18T15:52:18.695Z,51.70
2017-10-18T15:54:45.069Z,52.20
2017-10-18T15:57:11.414Z,53.10
2017-10-18T15:59:37.843Z,53.30
2017-10-18T16:02:04.170Z,53.80
2017-10-18T16:04:30.549Z,52.60
2017-10-18T16:06:57.650Z,54.60
2017-10-18T16:09:23.992Z,54.80
2017-10-18T16:11:50.356Z,54.50
2017-10-18T16:14:16.677Z,54.90
2017-10-18T16:16:43.055Z,54.90
2017-10-18T16:19:09.510Z,55.20
2017-10-18T16:21:35.885Z,56.20
2017-10-18T16:24:02.337Z,55.40
2017-10-18T16:26:28.789Z,56.00
2017-10-18T16:28:55.657Z,55.90
2017-10-18T16:31:21.990Z,55.90
2017-10-18T16:33:48.408Z,56.00
2017-10-18T16:36:15.542Z,56.80
2017-10-18T16:38:41.969Z,56.70
2017-10-18T16:41:08.410Z,56.80
2017-10-18T16:43:34.802Z,57.20
2017-10-18T16:46:01.247Z,57.10
2017-10-18T16:48:27.684Z,57.80
2017-10-18T16:50:54.761Z,58.30
2017-10-18T16:53:21.881Z,58.00
2017-10-18T16:55:48.225Z,58.00
2017-10-18T16:58:14.561Z,58.90
2017-10-18T17:00:41.226Z,59.20
2017-10-18T17:03:07.540Z,59.10
2017-10-18T17:05:34.644Z,59.80
2017-10-18T17:08:01.786Z,59.70
2017-10-18T17:10:28.168Z,59.40
2017-10-18T17:12:54.517Z,59.60
2017-10-18T17:15:20.866Z,59.90
2017-10-18T17:17:47.302Z,59.70
2017-10-18T17:20:13.738Z,60.30
2017-10-18T17:22:40.072Z,60.30
2017-10-18T17:25:07.132Z,61.00
2017-10-18T17:27:33.530Z,61.00
2017-10-18T17:29:59.855Z,60.70
2017-10-18T17:32:26.178Z,60.00
2017-10-18T17:34:53.260Z,60.80
2017-10-18T17:37:19.586Z,60.80
2017-10-18T17:39:46.014Z,60.40
2017-10-18T17:42:13.100Z,61.50
2017-10-18T17:44:39.450Z,61.50
2017-10-18T17:47:05.858Z,62.20
2017-10-18T17:49:32.267Z,60.90
2017-10-18T17:51:58.588Z,61.80
2017-10-18T17:54:24.969Z,62.20
2017-10-18T17:56:51.293Z,61.50
2017-10-18T17:59:18.517Z,62.60
2017-10-18T18:01:45.189Z,61.80
2017-10-18T18:04:11.547Z,61.40
2017-10-18T18:06:37.900Z,62.00
2017-10-18T18:09:04.267Z,61.70
2017-10-18T18:11:31.337Z,61.40
2017-10-18T18:13:57.716Z,61.40
2017-10-18T18:16:24.128Z,62.40
2017-10-18T18:18:51.276Z,62.60
2017-10-18T18:21:17.637Z,62.50
2017-10-18T18:23:44.841Z,62.40
2017-10-18T18:26:11.198Z,62.20
2017-10-18T18:28:37.669Z,62.90
2017-10-18T18:31:04.958Z,63.20
2017-10-18T18:33:31.357Z,63.20
2017-10-18T18:35:57.688Z,63.20
2017-10-18T18:38:24.180Z,62.40
2017-10-18T18:40:50.585Z,62.00
2017-10-18T18:43:16.954Z,62.70
2017-10-18T18:45:44.048Z,63.00
2017-10-18T18:48:10.476Z,63.00
2017-10-18T18:50:36.840Z,63.50
2017-10-18T18:53:03.171Z,63.80
2017-10-18T18:55:29.532Z,63.30
2017-10-18T18:57:56.003Z,63.40
2017-10-18T19:00:22.463Z,63.80
2017-10-18T19:02:48.845Z,63.30
2017-10-18T19:05:15.904Z,63.00
2017-10-18T19:07:42.960Z,64.10
2017-10-18T19:10:09.301Z,64.10
2017-10-18T19:12:35.719Z,64.00
2017-10-18T19:15:05.460Z,63.80
2017-10-18T19:17:32.568Z,64.60
2017-10-18T19:19:58.945Z,64.40
2017-10-18T19:22:25.418Z,63.70
2017-10-18T19:24:51.737Z,64.40
2017-10-18T19:27:18.060Z,62.70
2017-10-18T19:29:48.604Z,63.20
2017-10-18T19:32:14.940Z,64.00
2017-10-18T19:34:42.022Z,63.50
2017-10-18T19:37:08.398Z,63.50
2017-10-18T19:39:34.733Z,64.50
2017-10-18T19:42:01.896Z,63.40
2017-10-18T19:44:30.497Z,63.20
2017-10-18T19:47:01.107Z,63.30
2017-10-18T19:49:27.493Z,63.70
2017-10-18T19:51:53.973Z,63.00
2017-10-18T19:54:20.283Z,63.50
2017-10-18T19:56:46.670Z,64.00
2017-10-18T19:59:13.026Z,63.90
2017-10-18T20:01:39.392Z,64.30
2017-10-18T20:04:05.901Z,64.90
2017-10-18T20:06:32.494Z,64.10
2017-10-18T20:08:58.837Z,64.00
2017-10-18T20:11:25.241Z,65.00
2017-10-18T20:13:51.617Z,63.80
2017-10-18T20:16:19.274Z,64.80
2017-10-18T20:18:45.652Z,64.80
2017-10-18T20:21:12.093Z,64.80
2017-10-18T20:23:38.455Z,64.50
2017-10-18T20:26:04.935Z,64.80
2017-10-18T20:28:31.265Z,64.60
2017-10-18T20:30:57.647Z,64.10
2017-10-18T20:33:23.994Z,64.80
2017-10-18T20:36:09.757Z,65.50
2017-10-18T20:38:40.962Z,65.30
2017-10-18T20:41:07.391Z,66.00
2017-10-18T20:43:33.908Z,65.50
2017-10-18T20:46:00.340Z,64.80
2017-10-18T20:48:26.705Z,65.70
2017-10-18T20:50:53.081Z,65.30
2017-10-18T20:53:19.447Z,64.30
2017-10-18T20:55:45.788Z,64.60
2017-10-18T20:58:12.197Z,64.80
2017-10-18T21:00:39.342Z,65.30
2017-10-18T21:03:05.753Z,65.30
2017-10-18T21:05:32.112Z,65.50
2017-10-18T21:07:58.586Z,65.20
2017-10-18T21:10:24.978Z,65.70
2017-10-18T21:12:51.775Z,64.60
2017-10-18T21:15:18.569Z,64.20
2017-10-18T21:17:45.201Z,65.50
2017-10-18T21:20:12.286Z,65.90
2017-10-18T21:22:38.621Z,65.80
2017-10-18T21:25:06.489Z,65.00
2017-10-18T21:27:33.605Z,66.40
2017-10-18T21:29:59.933Z,65.80
2017-10-18T21:32:26.264Z,64.80
2017-10-18T21:34:52.773Z,65.40
2017-10-18T21:37:19.132Z,65.40
2017-10-18T21:39:46.208Z,65.20
2017-10-18T21:42:12.552Z,65.10
2017-10-18T21:44:39.271Z,64.90
2017-10-18T21:47:06.349Z,65.70
2017-10-18T21:49:32.724Z,65.70
2017-10-18T21:51:59.080Z,65.40
2017-10-18T21:54:25.978Z,65.50
2017-10-18T21:56:53.068Z,64.80
2017-10-18T21:59:19.448Z,64.80
2017-10-18T22:01:45.809Z,65.00
2017-10-18T22:04:12.218Z,64.90
2017-10-18T22:06:38.572Z,65.80
2017-10-18T22:09:04.987Z,65.90
2017-10-18T22:11:32.071Z,66.10
2017-10-18T22:13:58.381Z,66.30
2017-10-18T22:16:25.450Z,65.50
2017-10-18T22:18:51.821Z,65.60
2017-10-18T22:21:18.169Z,65.30
2017-10-18T22:23:44.812Z,65.40
2017-10-18T22:26:11.316Z,65.10
2017-10-18T22:28:38.411Z,65.70
2017-10-18T22:31:04.733Z,65.60
2017-10-18T22:33:31.074Z,64.90
2017-10-18T22:35:57.482Z,65.90
2017-10-18T22:38:23.927Z,64.90
2017-10-18T22:40:50.250Z,65.60
2017-10-18T22:43:17.212Z,64.80
2017-10-18T22:45:44.334Z,64.70
2017-10-18T22:48:10.787Z,65.00
2017-10-18T22:50:37.146Z,65.20
2017-10-18T22:53:03.483Z,65.80
2017-10-18T22:55:29.840Z,65.70
2017-10-18T22:57:56.209Z,64.70
2017-10-18T23:00:22.539Z,64.60
2017-10-18T23:02:48.878Z,64.90
2017-10-18T23:05:15.188Z,65.30
2017-10-18T23:07:41.514Z,65.50
2017-10-18T23:10:08.672Z,65.30
2017-10-18T23:12:35.041Z,65.20
2017-10-18T23:15:01.382Z,65.70
2017-10-18T23:17:27.750Z,65.70
2017-10-18T23:19:54.095Z,65.30
2017-10-18T23:22:20.907Z,64.90
2017-10-18T23:24:48.030Z,65.10
2017-10-18T23:27:14.394Z,65.10
2017-10-18T23:29:41.468Z,64.80
2017-10-18T23:32:08.598Z,64.40
2017-10-18T23:34:34.913Z,64.30
2017-10-18T23:37:01.282Z,65.80
2017-10-18T23:39:27.650Z,65.30
2017-10-18T23:41:54.721Z,65.00
2017-10-18T23:44:21.057Z,64.90
2017-10-18T23:46:47.442Z,65.00
2017-10-18T23:49:13.784Z,66.10
2017-10-18T23:51:40.228Z,65.50
2017-10-18T23:54:06.575Z,65.70
2017-10-18T23:56:32.953Z,65.30
2017-10-18T23:58:59.318Z,65.00
